createdAt,value
2023-01-12T00:01:59.108Z,2.50
2023-01-12T00:04:26.437Z,2.50
2023-01-12T00:06:54.260Z,2.50
2023-01-12T00:09:21.414Z,2.50
2023-01-12T00:11:48.894Z,2.60
2023-01-12T00:14:16.438Z,2.60
2023-01-12T00:16:44.176Z,2.50
2023-01-12T00:19:16.167Z,2.40
2023-01-12T00:21:56.539Z,2.40
2023-01-12T00:24:25.776Z,2.40
2023-01-12T00:26:54.313Z,2.40
2023-01-12T00:29:22.338Z,2.40
2023-01-12T00:31:50.055Z,2.40
2023-01-12T00:34:17.716Z,2.40
2023-01-12T00:36:46.654Z,2.50
2023-01-12T00:39:15.197Z,2.40
2023-01-12T00:42:03.642Z,2.40
2023-01-12T00:44:51.353Z,2.40
2023-01-12T00:47:18.842Z,2.40
2023-01-12T00:49:46.979Z,2.50
2023-01-12T00:52:29.398Z,2.50
2023-01-12T00:54:57.538Z,2.50
2023-01-12T00:57:24.883Z,2.50
2023-01-12T00:59:55.539Z,2.50
2023-01-12T01:02:24.390Z,2.50
2023-01-12T01:04:51.855Z,2.50
2023-01-12T01:07:21.714Z,2.50
2023-01-12T01:09:49.793Z,2.50
2023-01-12T01:12:17.328Z,2.50
2023-01-12T01:14:44.763Z,2.40
2023-01-12T01:17:12.085Z,2.40
2023-01-12T01:19:39.334Z,2.40
2023-01-12T01:22:06.712Z,2.40
2023-01-12T01:24:34.215Z,2.40
2023-01-12T01:27:01.289Z,2.40
2023-01-12T01:29:28.482Z,2.40
2023-01-12T01:31:56.004Z,2.40
2023-01-12T01:34:24.702Z,2.40
2023-01-12T01:36:51.886Z,2.40
2023-01-12T01:39:19.037Z,2.30
2023-01-12T01:41:48.217Z,2.30
2023-01-12T01:44:31.541Z,2.30
2023-01-12T01:47:02.292Z,2.30
2023-01-12T01:49:32.474Z,2.30
2023-01-12T01:52:10.830Z,2.30
2023-01-12T01:54:43.358Z,2.30
2023-01-12T01:57:12.725Z,2.20
2023-01-12T01:59:45.949Z,2.20
2023-01-12T02:02:13.528Z,2.20
2023-01-12T02:04:41.066Z,2.30
2023-01-12T02:07:09.288Z,2.20
2023-01-12T02:09:37.028Z,2.20
2023-01-12T02:12:25.285Z,2.30
2023-01-12T02:15:12.871Z,2.20
2023-01-12T02:18:19.863Z,2.20
2023-01-12T02:20:54.883Z,2.20
2023-01-12T02:23:23.229Z,2.30
2023-01-12T02:26:23.327Z,2.30
2023-01-12T02:29:10.470Z,2.30
2023-01-12T02:31:53.798Z,2.30
2023-01-12T02:34:41.559Z,2.30
2023-01-12T02:37:29.884Z,2.30
2023-01-12T02:40:24.390Z,2.30
2023-01-12T02:42:58.941Z,2.30
2023-01-12T02:45:43.177Z,2.30
2023-01-12T02:48:22.140Z,2.30
2023-01-12T02:51:00.142Z,2.30
2023-01-12T02:53:35.394Z,2.20
2023-01-12T02:56:06.369Z,2.20
2023-01-12T02:58:39.119Z,2.10
2023-01-12T03:01:07.960Z,2.20
2023-01-12T03:03:36.217Z,2.20
2023-01-12T03:06:06.920Z,2.20
2023-01-12T03:08:37.742Z,2.20
2023-01-12T03:11:12.832Z,2.10
2023-01-12T03:13:48.571Z,2.10
2023-01-12T03:16:21.512Z,2.10
2023-01-12T03:19:11.048Z,2.20
2023-01-12T03:21:51.504Z,2.20
2023-01-12T03:24:25.670Z,2.10
2023-01-12T03:26:59.128Z,2.20
2023-01-12T03:29:50.425Z,2.20
2023-01-12T03:32:18.288Z,2.20
2023-01-12T03:34:46.446Z,2.20
2023-01-12T03:37:22.167Z,2.20
2023-01-12T03:39:55.726Z,2.20
2023-01-12T03:42:26.760Z,2.10
2023-01-12T03:45:13.821Z,2.10
2023-01-12T03:47:43.151Z,2.20
2023-01-12T03:50:16.735Z,2.20
2023-01-12T03:52:46.451Z,2.20
2023-01-12T03:55:18.043Z,2.20
2023-01-12T03:57:46.607Z,2.20
2023-01-12T04:00:16.277Z,2.20
2023-01-12T04:02:44.248Z,2.10
2023-01-12T04:05:13.944Z,2.10
2023-01-12T04:07:41.277Z,2.10
2023-01-12T04:10:09.159Z,2.20
2023-01-12T04:12:36.406Z,2.10
2023-01-12T04:15:03.773Z,2.20
2023-01-12T04:17:31.003Z,2.20
2023-01-12T04:19:58.369Z,2.10
2023-01-12T04:22:45.604Z,2.10
2023-01-12T04:25:15.429Z,2.10
2023-01-12T04:27:48.044Z,2.10
2023-01-12T04:30:17.418Z,2.10
2023-01-12T04:32:45.511Z,2.10
2023-01-12T04:35:13.464Z,2.10
2023-01-12T04:37:41.491Z,2.20
2023-01-12T04:40:09.993Z,2.20
2023-01-12T04:42:57.388Z,2.10
2023-01-12T04:45:24.653Z,2.10
2023-01-12T04:47:51.852Z,2.20
2023-01-12T04:50:22.343Z,2.20
2023-01-12T04:52:51.182Z,2.20
2023-01-12T04:55:18.982Z,2.20
2023-01-12T04:57:47.040Z,2.20
2023-01-12T05:00:14.930Z,2.20
2023-01-12T05:02:42.157Z,2.20
2023-01-12T05:05:09.429Z,2.10
2023-01-12T05:07:36.754Z,2.10
2023-01-12T05:10:23.968Z,2.10
2023-01-12T05:12:51.474Z,2.10
2023-01-12T05:15:18.564Z,2.10
2023-01-12T05:17:45.789Z,2.10
2023-01-12T05:20:13.025Z,2.10
2023-01-12T05:22:40.354Z,2.10
2023-01-12T05:25:07.914Z,2.10
2023-01-12T05:27:35.188Z,2.10
2023-01-12T05:30:02.836Z,2.10
2023-01-12T05:32:29.923Z,2.10
2023-01-12T05:34:57.275Z,2.10
2023-01-12T05:37:24.510Z,2.10
2023-01-12T05:39:51.811Z,2.10
2023-01-12T05:42:38.748Z,2.10
2023-01-12T05:45:07.186Z,2.10
2023-01-12T05:47:34.709Z,2.00
2023-01-12T05:50:02.367Z,2.00
2023-01-12T05:52:29.622Z,2.00
2023-01-12T05:54:56.832Z,1.90
2023-01-12T05:57:23.919Z,2.00
2023-01-12T05:59:51.267Z,1.90
2023-01-12T06:02:18.545Z,2.00
2023-01-12T06:04:45.838Z,2.00
2023-01-12T06:07:15.231Z,1.90
2023-01-12T06:09:43.040Z,1.80
2023-01-12T06:12:32.330Z,1.80
2023-01-12T06:14:59.778Z,1.80
2023-01-12T06:17:27.155Z,1.70
2023-01-12T06:19:54.278Z,1.70
2023-01-12T06:22:21.532Z,1.70
2023-01-12T06:24:49.370Z,1.60
2023-01-12T06:27:17.192Z,1.60
2023-01-12T06:29:44.463Z,1.50
2023-01-12T06:32:11.613Z,1.40
2023-01-12T06:34:39.219Z,1.40
2023-01-12T06:37:08.442Z,1.40
2023-01-12T06:39:35.803Z,1.30
2023-01-12T06:42:25.570Z,1.20
2023-01-12T06:44:52.875Z,1.20
2023-01-12T06:47:20.685Z,1.20
2023-01-12T06:49:48.606Z,1.10
2023-01-12T06:52:16.127Z,1.10
2023-01-12T06:54:43.494Z,1.00
2023-01-12T06:57:11.716Z,1.00
2023-01-12T06:59:39.446Z,1.00
2023-01-12T07:02:06.917Z,1.00
2023-01-12T07:04:34.468Z,1.00
2023-01-12T07:07:01.725Z,1.00
2023-01-12T07:09:28.992Z,1.00
2023-01-12T07:11:56.460Z,1.00
2023-01-12T07:14:23.700Z,1.10
2023-01-12T07:16:52.680Z,1.20
2023-01-12T07:19:19.956Z,1.20
2023-01-12T07:21:49.676Z,1.10
2023-01-12T07:24:17.288Z,1.10
2023-01-12T07:26:45.564Z,1.10
2023-01-12T07:29:12.822Z,1.10
2023-01-12T07:31:40.256Z,1.10
2023-01-12T07:34:07.769Z,1.10
2023-01-12T07:36:35.262Z,1.10
2023-01-12T07:39:02.903Z,1.00
2023-01-12T07:41:50.037Z,1.10
2023-01-12T07:44:17.349Z,1.10
2023-01-12T07:46:44.792Z,1.10
2023-01-12T07:49:12.114Z,1.10
2023-01-12T07:51:39.835Z,1.10
2023-01-12T07:54:07.247Z,1.10
2023-01-12T07:56:34.580Z,1.10
2023-01-12T07:59:02.307Z,1.20
2023-01-12T08:01:33.661Z,1.50
2023-01-12T08:04:00.895Z,3.10
2023-01-12T08:06:28.238Z,5.10
2023-01-12T08:08:55.717Z,6.90
2023-01-12T08:11:23.399Z,9.00
2023-01-12T08:13:55.531Z,10.60
2023-01-12T08:16:31.602Z,11.90
2023-01-12T08:19:11.974Z,12.70
2023-01-12T08:21:46.175Z,13.30
2023-01-12T08:24:17.391Z,13.60
2023-01-12T08:26:48.328Z,14.00
2023-01-12T08:29:30.094Z,14.60
2023-01-12T08:32:01.608Z,14.80
2023-01-12T08:34:31.765Z,15.10
2023-01-12T08:37:03.926Z,15.00
2023-01-12T08:39:31.421Z,15.30
2023-01-12T08:41:58.641Z,15.20
2023-01-12T08:44:30.037Z,15.70
2023-01-12T08:46:57.559Z,16.60
2023-01-12T08:49:28.097Z,16.40
2023-01-12T08:51:55.959Z,16.50
2023-01-12T08:54:24.037Z,16.60
2023-01-12T08:56:51.644Z,17.10
2023-01-12T08:59:19.484Z,17.60
2023-01-12T09:01:46.991Z,17.50
2023-01-12T09:04:14.575Z,17.70
2023-01-12T09:06:43.597Z,17.80
2023-01-12T09:09:13.859Z,17.70
2023-01-12T09:11:42.847Z,17.60
2023-01-12T09:14:11.460Z,17.50
2023-01-12T09:16:39.362Z,17.60
2023-01-12T09:19:07.623Z,17.70
2023-01-12T09:21:38.980Z,17.80
2023-01-12T09:24:06.927Z,17.70
2023-01-12T09:26:39.018Z,17.60
2023-01-12T09:29:08.009Z,17.70
2023-01-12T09:31:36.864Z,18.10
2023-01-12T09:34:04.562Z,18.30
2023-01-12T09:36:34.564Z,17.90
2023-01-12T09:39:02.739Z,17.90
2023-01-12T09:41:51.331Z,17.80
2023-01-12T09:44:56.351Z,17.10
2023-01-12T09:47:44.836Z,16.00
2023-01-12T09:50:13.738Z,15.70
2023-01-12T09:52:44.836Z,15.20
2023-01-12T09:55:18.873Z,15.00
2023-01-12T09:58:09.628Z,14.60
2023-01-12T10:00:36.725Z,14.10
2023-01-12T10:03:11.491Z,13.60
2023-01-12T10:05:43.848Z,13.20
2023-01-12T10:08:42.283Z,12.80
2023-01-12T10:11:49.324Z,12.40
2023-01-12T10:14:20.016Z,12.00
2023-01-12T10:17:08.222Z,11.60
2023-01-12T10:19:36.617Z,11.30
2023-01-12T10:22:37.410Z,11.20
2023-01-12T10:25:06.897Z,11.20
2023-01-12T10:27:41.362Z,11.40
2023-01-12T10:30:11.808Z,11.50
2023-01-12T10:32:41.867Z,11.70
2023-01-12T10:35:20.603Z,11.80
2023-01-12T10:37:51.766Z,11.90
2023-01-12T10:40:31.299Z,11.90
2023-01-12T10:43:20.468Z,12.00
2023-01-12T10:45:55.309Z,11.90
2023-01-12T10:48:22.934Z,11.70
2023-01-12T10:51:08.272Z,11.70
2023-01-12T10:53:42.752Z,11.60
2023-01-12T10:56:14.949Z,11.50
2023-01-12T10:58:45.944Z,11.50
2023-01-12T11:01:15.252Z,11.60
2023-01-12T11:03:43.004Z,11.60
2023-01-12T11:06:31.353Z,11.70
2023-01-12T11:08:58.708Z,11.80
2023-01-12T11:11:32.787Z,11.80
2023-01-12T11:14:05.242Z,11.80
2023-01-12T11:16:35.375Z,11.90
2023-01-12T11:19:13.471Z,11.90
2023-01-12T11:21:44.626Z,12.10
2023-01-12T11:24:15.162Z,12.20
2023-01-12T11:26:58.028Z,12.20
2023-01-12T11:29:29.830Z,12.20
2023-01-12T11:32:02.479Z,12.10
2023-01-12T11:34:37.121Z,12.00
2023-01-12T11:37:10.067Z,12.00
2023-01-12T11:39:39.329Z,11.90
2023-01-12T11:42:37.585Z,11.90
2023-01-12T11:45:16.008Z,11.90
2023-01-12T11:47:51.860Z,11.80
2023-01-12T11:50:28.125Z,11.80
2023-01-12T11:52:56.573Z,11.80
2023-01-12T11:56:03.516Z,12.00
2023-01-12T11:58:34.296Z,12.00
2023-01-12T12:01:20.334Z,12.20
2023-01-12T12:04:23.826Z,12.40
2023-01-12T12:06:57.810Z,12.50
2023-01-12T12:09:46.008Z,12.50
2023-01-12T12:12:48.839Z,12.60
2023-01-12T12:15:35.119Z,12.50
2023-01-12T12:18:17.306Z,12.50
2023-01-12T12:20:56.718Z,12.60
2023-01-12T12:23:27.373Z,12.50
2023-01-12T12:26:32.647Z,12.20
2023-01-12T12:29:19.666Z,12.10
2023-01-12T12:31:50.163Z,12.00
2023-01-12T12:34:51.598Z,12.10
2023-01-12T12:37:39.667Z,12.20
2023-01-12T12:41:03.181Z,12.20
2023-01-12T12:43:52.899Z,12.20
2023-01-12T12:46:47.507Z,12.00
2023-01-12T12:49:22.454Z,11.90
2023-01-12T12:51:51.387Z,11.90
2023-01-12T12:54:21.651Z,11.80
2023-01-12T12:56:49.940Z,11.80
2023-01-12T12:59:33.118Z,11.70
2023-01-12T13:02:02.589Z,11.50
2023-01-12T13:04:46.559Z,11.50
2023-01-12T13:07:19.387Z,11.40
2023-01-12T13:09:48.374Z,11.20
2023-01-12T13:12:37.195Z,11.20
2023-01-12T13:15:24.309Z,11.20
2023-01-12T13:17:53.402Z,11.20
2023-01-12T13:20:26.189Z,11.00
2023-01-12T13:22:53.721Z,11.10
2023-01-12T13:25:20.965Z,11.10
2023-01-12T13:27:49.986Z,11.00
2023-01-12T13:30:32.221Z,10.80
2023-01-12T13:33:21.319Z,10.70
2023-01-12T13:35:48.570Z,10.50
2023-01-12T13:38:25.830Z,10.40
2023-01-12T13:41:01.713Z,10.30
2023-01-12T13:43:38.954Z,10.20
2023-01-12T13:46:22.380Z,10.20
2023-01-12T13:48:52.439Z,10.10
2023-01-12T13:51:28.187Z,10.00
2023-01-12T13:54:05.331Z,10.00
2023-01-12T13:56:33.362Z,10.20
2023-01-12T13:59:03.058Z,10.20
2023-01-12T14:01:36.043Z,10.30
2023-01-12T14:04:26.770Z,10.30
2023-01-12T14:07:33.951Z,10.40
2023-01-12T14:10:07.799Z,10.40
2023-01-12T14:12:42.572Z,10.50
2023-01-12T14:15:50.432Z,10.50
2023-01-12T14:18:21.160Z,10.50
2023-01-12T14:20:54.717Z,10.40
2023-01-12T14:23:27.966Z,10.30
2023-01-12T14:26:12.303Z,10.20
2023-01-12T14:28:43.157Z,10.10
2023-01-12T14:31:20.558Z,10.10
2023-01-12T14:33:55.234Z,10.00
2023-01-12T14:36:27.198Z,9.90
2023-01-12T14:38:56.055Z,9.90
2023-01-12T14:41:47.211Z,9.90
2023-01-12T14:44:45.463Z,9.80
2023-01-12T14:47:28.670Z,9.80
2023-01-12T14:49:56.058Z,9.70
2023-01-12T14:52:30.162Z,9.70
2023-01-12T14:55:27.887Z,9.60
2023-01-12T14:58:02.277Z,9.50
2023-01-12T15:00:32.648Z,9.40
2023-01-12T15:03:02.868Z,9.40
2023-01-12T15:05:31.915Z,9.30
2023-01-12T15:08:19.013Z,9.20
2023-01-12T15:10:57.571Z,9.30
2023-01-12T15:13:32.972Z,9.20
2023-01-12T15:16:21.236Z,9.10
2023-01-12T15:19:08.721Z,9.00
2023-01-12T15:21:57.778Z,8.90
2023-01-12T15:24:48.396Z,8.80
2023-01-12T15:27:19.027Z,8.70
2023-01-12T15:29:46.552Z,8.50
2023-01-12T15:32:20.492Z,8.40
2023-01-12T15:34:48.963Z,8.30
2023-01-12T15:37:18.464Z,8.20
2023-01-12T15:39:46.300Z,8.00
2023-01-12T15:42:16.427Z,7.90
2023-01-12T15:44:44.727Z,7.80
2023-01-12T15:47:12.889Z,7.70
2023-01-12T15:49:41.134Z,7.60
2023-01-12T15:52:19.559Z,7.50
2023-01-12T15:54:47.260Z,7.40
2023-01-12T15:57:15.565Z,7.30
2023-01-12T15:59:43.174Z,7.20
2023-01-12T16:02:33.365Z,7.10
2023-01-12T16:05:01.003Z,6.90
2023-01-12T16:07:28.414Z,6.80
2023-01-12T16:09:56.058Z,6.80
2023-01-12T16:12:24.369Z,6.80
2023-01-12T16:14:52.102Z,6.70
2023-01-12T16:17:20.052Z,6.70
2023-01-12T16:19:47.435Z,6.70
2023-01-12T16:22:19.637Z,6.70
2023-01-12T16:24:48.421Z,6.70
2023-01-12T16:27:16.609Z,6.70
2023-01-12T16:29:44.472Z,6.60
2023-01-12T16:32:12.234Z,6.60
2023-01-12T16:34:40.460Z,6.60
2023-01-12T16:37:13.762Z,6.60
2023-01-12T16:39:41.839Z,6.60
2023-01-12T16:42:10.138Z,6.60
2023-01-12T16:44:39.091Z,6.50
2023-01-12T16:47:10.212Z,6.50
2023-01-12T16:49:37.750Z,6.50
2023-01-12T16:52:05.886Z,6.40
2023-01-12T16:54:33.508Z,6.40
2023-01-12T16:57:01.290Z,6.40
2023-01-12T16:59:28.921Z,6.40
2023-01-12T17:01:56.296Z,6.40
2023-01-12T17:04:23.486Z,6.40
2023-01-12T17:06:50.781Z,6.40
2023-01-12T17:09:18.500Z,6.30
2023-01-12T17:11:47.027Z,6.30
2023-01-12T17:14:33.598Z,6.30
2023-01-12T17:17:04.349Z,6.20
2023-01-12T17:19:34.177Z,6.20
2023-01-12T17:22:02.790Z,6.20
2023-01-12T17:24:31.118Z,6.20
2023-01-12T17:26:59.020Z,6.20
2023-01-12T17:29:28.484Z,6.20
2023-01-12T17:32:06.074Z,6.20
2023-01-12T17:34:38.679Z,6.10
2023-01-12T17:37:08.671Z,6.10
2023-01-12T17:39:40.151Z,6.00
2023-01-12T17:42:27.608Z,6.00
2023-01-12T17:44:55.176Z,6.00
2023-01-12T17:47:22.999Z,6.00
2023-01-12T17:49:50.441Z,6.00
2023-01-12T17:52:18.008Z,6.00
2023-01-12T17:54:45.341Z,6.00
2023-01-12T17:57:12.970Z,6.00
2023-01-12T17:59:40.228Z,5.90
2023-01-12T18:02:08.040Z,5.90
2023-01-12T18:04:35.769Z,5.90
2023-01-12T18:07:03.013Z,5.90
2023-01-12T18:09:31.731Z,5.90
2023-01-12T18:12:01.193Z,5.90
2023-01-12T18:14:28.818Z,5.80
2023-01-12T18:16:57.593Z,5.80
2023-01-12T18:19:25.301Z,5.70
2023-01-12T18:21:52.888Z,5.70
2023-01-12T18:24:20.190Z,5.60
2023-01-12T18:26:48.443Z,5.50
2023-01-12T18:29:15.934Z,5.40
2023-01-12T18:31:43.890Z,5.30
2023-01-12T18:34:11.931Z,5.30
2023-01-12T18:36:41.706Z,5.20
2023-01-12T18:39:13.287Z,5.10
2023-01-12T18:42:00.801Z,5.00
2023-01-12T18:44:28.059Z,4.90
2023-01-12T18:47:16.842Z,4.70
2023-01-12T18:49:47.704Z,4.60
2023-01-12T18:52:36.621Z,4.50
2023-01-12T18:55:05.600Z,4.40
2023-01-12T18:57:33.744Z,4.30
2023-01-12T19:00:16.176Z,4.30
2023-01-12T19:02:44.333Z,4.20
2023-01-12T19:05:14.302Z,4.20
2023-01-12T19:08:01.609Z,4.10
2023-01-12T19:10:30.128Z,4.00
2023-01-12T19:13:18.448Z,4.00
2023-01-12T19:16:05.749Z,4.00
2023-01-12T19:18:37.412Z,3.90
2023-01-12T19:21:28.709Z,3.80
2023-01-12T19:24:16.397Z,3.80
2023-01-12T19:27:03.714Z,3.70
2023-01-12T19:29:31.129Z,3.60
2023-01-12T19:31:58.550Z,3.60
2023-01-12T19:34:26.459Z,3.50
2023-01-12T19:36:54.248Z,3.50
2023-01-12T19:39:33.864Z,3.40
2023-01-12T19:42:21.161Z,3.40
2023-01-12T19:44:48.545Z,3.30
2023-01-12T19:47:15.849Z,3.40
2023-01-12T19:49:43.238Z,3.30
2023-01-12T19:52:11.089Z,3.30
2023-01-12T19:54:38.615Z,3.30
2023-01-12T19:57:06.600Z,3.30
2023-01-12T19:59:34.143Z,3.30
2023-01-12T20:02:02.228Z,3.30
2023-01-12T20:04:30.383Z,3.30
2023-01-12T20:06:58.509Z,3.40
2023-01-12T20:09:26.331Z,3.40
2023-01-12T20:11:55.331Z,3.50
2023-01-12T20:14:22.917Z,3.50
2023-01-12T20:16:50.695Z,3.50
2023-01-12T20:19:20.809Z,3.50
2023-01-12T20:21:49.072Z,3.50
2023-01-12T20:24:16.909Z,3.50
2023-01-12T20:26:44.664Z,3.50
2023-01-12T20:29:12.874Z,3.50
2023-01-12T20:31:40.436Z,3.40
2023-01-12T20:34:08.441Z,3.40
2023-01-12T20:36:38.922Z,3.40
2023-01-12T20:39:11.099Z,3.40
2023-01-12T20:41:39.438Z,3.40
2023-01-12T20:44:07.485Z,3.40
2023-01-12T20:46:35.382Z,3.40
2023-01-12T20:49:02.812Z,3.40
2023-01-12T20:51:30.580Z,3.40
2023-01-12T20:54:00.012Z,3.40
2023-01-12T20:56:28.081Z,3.40
2023-01-12T20:58:57.069Z,3.30
2023-01-12T21:01:25.126Z,3.20
2023-01-12T21:03:52.804Z,3.20
2023-01-12T21:06:21.523Z,3.10
2023-01-12T21:08:49.061Z,3.10
2023-01-12T21:11:18.870Z,3.00
2023-01-12T21:13:47.224Z,3.00
2023-01-12T21:16:18.423Z,3.00
2023-01-12T21:18:46.716Z,3.00
2023-01-12T21:21:14.478Z,3.00
2023-01-12T21:23:42.665Z,2.90
2023-01-12T21:26:11.481Z,2.90
2023-01-12T21:28:39.843Z,2.80
2023-01-12T21:31:09.359Z,2.70
2023-01-12T21:33:37.434Z,2.60
2023-01-12T21:36:05.420Z,2.60
2023-01-12T21:38:33.289Z,2.50
2023-01-12T21:41:03.775Z,2.50
2023-01-12T21:43:31.607Z,2.40
2023-01-12T21:46:06.000Z,2.40
2023-01-12T21:48:34.071Z,2.40
2023-01-12T21:51:04.519Z,2.40
2023-01-12T21:53:32.267Z,2.30
2023-01-12T21:56:02.058Z,2.20
2023-01-12T21:58:32.050Z,2.20
2023-01-12T22:01:06.374Z,2.20
2023-01-12T22:03:34.186Z,2.20
2023-01-12T22:06:05.944Z,2.10
2023-01-12T22:08:34.992Z,2.10
2023-01-12T22:11:12.858Z,2.00
2023-01-12T22:13:41.163Z,2.00
2023-01-12T22:16:10.253Z,2.00
2023-01-12T22:18:38.948Z,1.90
2023-01-12T22:21:09.133Z,1.90
2023-01-12T22:23:37.563Z,1.90
2023-01-12T22:26:07.003Z,1.90
2023-01-12T22:28:35.116Z,1.90
2023-01-12T22:31:23.688Z,1.90
2023-01-12T22:34:04.154Z,1.90
2023-01-12T22:36:35.050Z,1.90
2023-01-12T22:39:02.921Z,1.80
2023-01-12T22:41:30.068Z,1.80
2023-01-12T22:43:57.516Z,1.70
2023-01-12T22:46:27.171Z,1.70
2023-01-12T22:48:57.220Z,1.70
2023-01-12T22:51:26.412Z,1.70
2023-01-12T22:53:54.520Z,1.70
2023-01-12T22:56:22.462Z,1.70
2023-01-12T22:58:52.258Z,1.70
2023-01-12T23:01:21.380Z,1.70
2023-01-12T23:03:52.089Z,1.70
2023-01-12T23:06:19.537Z,1.70
2023-01-12T23:08:46.674Z,1.80
2023-01-12T23:11:18.175Z,1.70
2023-01-12T23:13:46.244Z,1.80
2023-01-12T23:16:16.667Z,1.80
2023-01-12T23:18:45.738Z,1.80
2023-01-12T23:21:16.437Z,1.80
2023-01-12T23:23:46.807Z,1.70
2023-01-12T23:26:17.836Z,1.70
2023-01-12T23:28:48.780Z,1.70
2023-01-12T23:31:19.549Z,1.70
2023-01-12T23:33:47.145Z,1.70
2023-01-12T23:36:16.942Z,1.60
2023-01-12T23:38:44.445Z,1.60
2023-01-12T23:41:22.449Z,1.70
2023-01-12T23:43:51.085Z,1.70
2023-01-12T23:46:21.999Z,1.70
2023-01-12T23:48:50.521Z,1.70
2023-01-12T23:51:17.628Z,1.70
2023-01-12T23:53:45.398Z,1.70
2023-01-12T23:56:15.461Z,1.60
2023-01-12T23:58:44.256Z,1.70
